EZY15MX EGBB-DTNH
Flight info
| Callsign | EZY15MX |
|---|---|
| Flight time | 2h 47m |
| Altitude | 39000 |
| Route | ADMEX Y321 EMKUK UL612 VEULE DCT DEKOD UN857 DISAK DCT DIRMO DCT ETAMO DCT ADEKA DCT MOKDI DCT MEN DCT BADAM DCT FJR DCT AMFAC DCT BATIV DCT PELOS DCT IPROM DCT KOVAS DCT CAR DCT PIRIX DCT OSMAR UA725 TANIT UM739 CBN M738 DIDON G727 ATLEL ATLEL1W |
| Aircraft | A20N/M-SDE2E3FGHIJ1RWXY/LB1 |
Departure
| Time | 2026-05-04 08:24 |
|---|---|
| Airport | Birmingham Airport (EGBB) |
Arrival
| Time | 2026-05-04 11:12 |
|---|---|
| Airport | Enfidha - Hammamet International Airport (DTNH) |
| Time | Latitude | Longitude | Altitude | Speed | Heading |
|---|---|---|---|---|---|
| 2026-05-04 07:58 | 52.45068 | -1.73591 | 321 ft | 0 kts | 128° |
| 2026-05-04 08:19 | 52.45139 | -1.73625 | 321 ft | 1 kts | 236° |
| 2026-05-04 08:21 | 52.45123 | -1.73664 | 321 ft | 10 kts | 237° |
| 2026-05-04 08:21 | 52.45051 | -1.73745 | 323 ft | 15 kts | 180° |
| 2026-05-04 08:21 | 52.44955 | -1.73653 | 321 ft | 17 kts | 153° |
| 2026-05-04 08:22 | 52.44835 | -1.73679 | 321 ft | 19 kts | 198° |
| 2026-05-04 08:22 | 52.44719 | -1.73727 | 323 ft | 15 kts | 172° |
| 2026-05-04 08:24 | 52.45042 | -1.74421 | 330 ft | 123 kts | 325° |
| 2026-05-04 08:24 | 52.45878 | -1.75360 | 471 ft | 154 kts | 330° |
| 2026-05-04 08:24 | 52.46777 | -1.76292 | 1105 ft | 158 kts | 330° |
| 2026-05-04 08:24 | 52.47747 | -1.77304 | 1673 ft | 172 kts | 330° |
| 2026-05-04 08:25 | 52.48768 | -1.78453 | 2229 ft | 184 kts | 327° |
| 2026-05-04 08:25 | 52.49858 | -1.79623 | 2868 ft | 187 kts | 343° |
| 2026-05-04 08:25 | 52.51117 | -1.79670 | 3588 ft | 188 kts | 20° |
| 2026-05-04 08:25 | 52.52210 | -1.78368 | 4035 ft | 207 kts | 49° |
| 2026-05-04 08:26 | 52.53028 | -1.76273 | 4445 ft | 229 kts | 68° |
| 2026-05-04 08:27 | 52.47947 | -1.59198 | 9318 ft | 289 kts | 137° |
| 2026-05-04 08:28 | 52.46501 | -1.56905 | 10187 ft | 290 kts | 141° |
| 2026-05-04 08:28 | 52.44871 | -1.54951 | 10981 ft | 291 kts | 150° |
| 2026-05-04 08:28 | 52.43122 | -1.53244 | 11756 ft | 294 kts | 150° |
| 2026-05-04 08:28 | 52.41256 | -1.51753 | 12277 ft | 307 kts | 161° |
| 2026-05-04 08:29 | 52.39173 | -1.50533 | 12495 ft | 329 kts | 163° |
| 2026-05-04 08:29 | 52.36953 | -1.49288 | 12879 ft | 344 kts | 163° |
| 2026-05-04 08:29 | 52.34679 | -1.48008 | 13639 ft | 347 kts | 162° |
| 2026-05-04 08:31 | 52.18238 | -1.38558 | 18265 ft | 370 kts | 162° |
| 2026-05-04 08:33 | 52.00865 | -1.28622 | 22172 ft | 387 kts | 163° |
| 2026-05-04 08:33 | 51.98313 | -1.27170 | 22706 ft | 390 kts | 163° |
| 2026-05-04 08:35 | 51.79992 | -1.16806 | 25925 ft | 405 kts | 164° |
| 2026-05-04 08:35 | 51.77333 | -1.15307 | 26462 ft | 404 kts | 164° |
| 2026-05-04 08:35 | 51.74674 | -1.13811 | 26885 ft | 406 kts | 164° |
| 2026-05-04 08:35 | 51.71998 | -1.12310 | 27264 ft | 408 kts | 164° |
| 2026-05-04 08:37 | 51.56394 | -1.00594 | 29471 ft | 425 kts | 148° |
| 2026-05-04 08:37 | 51.54000 | -0.97830 | 29963 ft | 423 kts | 149° |
| 2026-05-04 08:37 | 51.51600 | -0.95077 | 30241 ft | 425 kts | 149° |
| 2026-05-04 08:38 | 51.49185 | -0.92318 | 30481 ft | 428 kts | 149° |
| 2026-05-04 08:38 | 51.46732 | -0.89595 | 30688 ft | 429 kts | 152° |
| 2026-05-04 08:38 | 51.44136 | -0.87243 | 30907 ft | 428 kts | 158° |
| 2026-05-04 08:40 | 51.24763 | -0.74765 | 32920 ft | 431 kts | 161° |
| 2026-05-04 08:40 | 51.21973 | -0.72992 | 33183 ft | 432 kts | 161° |
| 2026-05-04 08:40 | 51.19180 | -0.71219 | 33449 ft | 432 kts | 161° |
| 2026-05-04 08:41 | 51.16385 | -0.69448 | 33702 ft | 433 kts | 161° |
| 2026-05-04 08:41 | 51.13583 | -0.67674 | 33949 ft | 434 kts | 161° |
| 2026-05-04 08:41 | 51.10777 | -0.65900 | 34160 ft | 434 kts | 161° |
| 2026-05-04 08:41 | 51.07970 | -0.64127 | 34362 ft | 435 kts | 161° |
| 2026-05-04 08:42 | 51.05218 | -0.62094 | 34547 ft | 438 kts | 154° |
| 2026-05-04 08:42 | 51.02606 | -0.59584 | 34742 ft | 440 kts | 149° |
| 2026-05-04 08:42 | 51.00071 | -0.56847 | 34934 ft | 441 kts | 149° |
| 2026-05-04 08:42 | 50.97533 | -0.54113 | 35131 ft | 441 kts | 149° |
| 2026-05-04 08:43 | 50.94990 | -0.51385 | 35305 ft | 441 kts | 149° |
| 2026-05-04 08:43 | 50.92448 | -0.48670 | 35486 ft | 442 kts | 148° |
| 2026-05-04 08:43 | 50.89898 | -0.45953 | 35653 ft | 442 kts | 148° |
| 2026-05-04 08:43 | 50.87345 | -0.43239 | 35832 ft | 442 kts | 148° |
| 2026-05-04 08:44 | 50.84793 | -0.40530 | 36074 ft | 440 kts | 149° |
| 2026-05-04 08:44 | 50.82247 | -0.37831 | 36244 ft | 441 kts | 149° |
| 2026-05-04 08:46 | 50.64346 | -0.18955 | 37212 ft | 443 kts | 148° |
| 2026-05-04 08:46 | 50.61780 | -0.16281 | 37402 ft | 441 kts | 149° |
| 2026-05-04 08:46 | 50.59207 | -0.13649 | 37535 ft | 442 kts | 149° |
| 2026-05-04 08:46 | 50.56661 | -0.11057 | 37637 ft | 442 kts | 149° |
| 2026-05-04 08:47 | 50.54078 | -0.08425 | 37752 ft | 442 kts | 149° |
| 2026-05-04 08:47 | 50.51493 | -0.05787 | 37856 ft | 443 kts | 149° |
| 2026-05-04 08:47 | 50.48915 | -0.03156 | 37960 ft | 443 kts | 149° |
| 2026-05-04 08:48 | 50.43742 | 0.02120 | 38134 ft | 444 kts | 149° |
| 2026-05-04 08:48 | 50.38556 | 0.07390 | 38323 ft | 445 kts | 150° |
| 2026-05-04 08:49 | 50.33355 | 0.12659 | 38483 ft | 445 kts | 150° |
| 2026-05-04 08:50 | 50.17712 | 0.28427 | 38895 ft | 446 kts | 150° |
| 2026-05-04 08:50 | 50.15100 | 0.31049 | 38950 ft | 447 kts | 150° |
| 2026-05-04 08:51 | 50.09870 | 0.36286 | 39010 ft | 447 kts | 150° |
| 2026-05-04 08:51 | 50.04644 | 0.41507 | 39007 ft | 446 kts | 150° |
| 2026-05-04 08:52 | 49.99450 | 0.46680 | 38999 ft | 446 kts | 150° |
| 2026-05-04 08:52 | 49.94203 | 0.51893 | 39005 ft | 448 kts | 150° |
| 2026-05-04 08:54 | 49.73317 | 0.72512 | 38976 ft | 444 kts | 150° |
| 2026-05-04 08:55 | 49.68988 | 0.76760 | 38983 ft | 443 kts | 150° |
| 2026-05-04 08:55 | 49.63783 | 0.81853 | 38981 ft | 443 kts | 150° |
| 2026-05-04 09:01 | 49.08839 | 1.34837 | 38992 ft | 447 kts | 150° |
| 2026-05-04 09:01 | 49.03596 | 1.39825 | 38993 ft | 441 kts | 151° |
| 2026-05-04 09:02 | 48.98383 | 1.44765 | 38989 ft | 442 kts | 151° |
| 2026-05-04 09:02 | 48.93154 | 1.49708 | 38986 ft | 442 kts | 151° |
| 2026-05-04 09:03 | 48.87933 | 1.54632 | 38994 ft | 442 kts | 152° |
| 2026-05-04 09:03 | 48.82739 | 1.59519 | 38994 ft | 442 kts | 152° |
| 2026-05-04 09:04 | 48.77508 | 1.64429 | 38990 ft | 442 kts | 152° |
| 2026-05-04 09:04 | 48.72275 | 1.69329 | 38985 ft | 442 kts | 152° |
| 2026-05-04 09:05 | 48.67041 | 1.74217 | 38963 ft | 442 kts | 152° |
| 2026-05-04 09:05 | 48.61853 | 1.79054 | 38982 ft | 435 kts | 152° |
| 2026-05-04 09:06 | 48.56707 | 1.83836 | 38986 ft | 436 kts | 152° |
| 2026-05-04 09:08 | 48.36093 | 2.02879 | 38979 ft | 432 kts | 152° |
| 2026-05-04 09:08 | 48.30951 | 2.07604 | 38985 ft | 434 kts | 152° |
| 2026-05-04 09:09 | 48.25821 | 2.12373 | 38982 ft | 434 kts | 151° |
| 2026-05-04 09:09 | 48.20785 | 2.17361 | 38982 ft | 435 kts | 150° |
| 2026-05-04 09:10 | 48.15737 | 2.22371 | 38991 ft | 435 kts | 151° |
| 2026-05-04 09:10 | 48.10681 | 2.27350 | 38996 ft | 435 kts | 151° |
| 2026-05-04 09:11 | 48.05617 | 2.32316 | 38991 ft | 435 kts | 151° |
| 2026-05-04 09:11 | 48.00555 | 2.37268 | 38999 ft | 435 kts | 151° |
| 2026-05-04 09:12 | 47.95485 | 2.42215 | 38990 ft | 434 kts | 151° |
| 2026-05-04 09:14 | 47.75316 | 2.61767 | 38997 ft | 432 kts | 152° |
| 2026-05-04 09:14 | 47.70278 | 2.66619 | 38993 ft | 432 kts | 152° |
| 2026-05-04 09:15 | 47.65240 | 2.71460 | 38982 ft | 431 kts | 152° |
| 2026-05-04 09:15 | 47.60203 | 2.76289 | 38985 ft | 431 kts | 152° |
| 2026-05-04 09:17 | 47.37469 | 2.97944 | 38994 ft | 433 kts | 152° |
| 2026-05-04 09:18 | 47.32399 | 3.02744 | 38992 ft | 433 kts | 152° |
| 2026-05-04 09:18 | 47.27316 | 3.07543 | 39004 ft | 434 kts | 152° |
| 2026-05-04 09:19 | 47.22219 | 3.12346 | 38993 ft | 434 kts | 152° |
| 2026-05-04 09:19 | 47.17143 | 3.17117 | 38996 ft | 433 kts | 152° |
| 2026-05-04 09:20 | 47.12057 | 3.21886 | 38995 ft | 434 kts | 152° |
| 2026-05-04 09:20 | 47.06977 | 3.26640 | 38993 ft | 433 kts | 152° |
| 2026-05-04 09:21 | 47.01895 | 3.31385 | 38992 ft | 433 kts | 152° |
| 2026-05-04 09:21 | 46.96803 | 3.36126 | 39000 ft | 435 kts | 152° |
| 2026-05-04 09:22 | 46.91703 | 3.40867 | 38987 ft | 433 kts | 152° |
| 2026-05-04 09:22 | 46.86632 | 3.45570 | 38992 ft | 431 kts | 153° |
| 2026-05-04 09:23 | 46.81554 | 3.50265 | 38996 ft | 432 kts | 153° |
| 2026-05-04 09:23 | 46.76505 | 3.54924 | 38996 ft | 432 kts | 153° |
| 2026-05-04 09:25 | 46.56177 | 3.73580 | 38989 ft | 432 kts | 153° |
| 2026-05-04 09:26 | 46.51089 | 3.78222 | 38993 ft | 432 kts | 153° |
| 2026-05-04 09:26 | 46.45999 | 3.82858 | 38995 ft | 432 kts | 153° |
| 2026-05-04 09:27 | 46.40908 | 3.87482 | 38997 ft | 432 kts | 153° |
| 2026-05-04 09:27 | 46.35844 | 3.92073 | 38993 ft | 432 kts | 153° |
| 2026-05-04 09:28 | 46.30746 | 3.96685 | 38993 ft | 432 kts | 153° |
| 2026-05-04 09:28 | 46.25646 | 4.01287 | 38990 ft | 432 kts | 153° |
| 2026-05-04 09:29 | 46.20542 | 4.05883 | 38993 ft | 432 kts | 153° |
| 2026-05-04 09:29 | 46.15442 | 4.10465 | 38994 ft | 432 kts | 153° |
| 2026-05-04 09:30 | 46.10332 | 4.15046 | 39002 ft | 432 kts | 153° |
| 2026-05-04 09:30 | 46.05226 | 4.19614 | 39005 ft | 432 kts | 153° |
| 2026-05-04 09:31 | 46.00123 | 4.24168 | 39008 ft | 432 kts | 153° |
| 2026-05-04 09:31 | 45.95012 | 4.28720 | 39014 ft | 432 kts | 153° |
| 2026-05-04 09:32 | 45.89935 | 4.33233 | 39018 ft | 432 kts | 153° |
| 2026-05-04 09:34 | 45.69519 | 4.51276 | 39015 ft | 431 kts | 154° |
| 2026-05-04 09:34 | 45.64415 | 4.55762 | 39019 ft | 430 kts | 154° |
| 2026-05-04 09:35 | 45.59311 | 4.60239 | 39015 ft | 431 kts | 154° |
| 2026-05-04 09:35 | 45.54208 | 4.64705 | 39024 ft | 431 kts | 154° |
| 2026-05-04 09:37 | 45.33799 | 4.82472 | 39050 ft | 432 kts | 154° |
| 2026-05-04 09:38 | 45.28662 | 4.86920 | 39050 ft | 431 kts | 154° |
| 2026-05-04 09:38 | 45.23539 | 4.91349 | 39052 ft | 433 kts | 154° |
| 2026-05-04 09:39 | 45.18388 | 4.95789 | 39057 ft | 433 kts | 154° |
| 2026-05-04 09:39 | 45.13238 | 5.00220 | 39044 ft | 433 kts | 154° |
| 2026-05-04 09:40 | 45.08083 | 5.04645 | 39055 ft | 435 kts | 154° |
| 2026-05-04 09:40 | 45.02904 | 5.09081 | 39063 ft | 436 kts | 154° |
| 2026-05-04 09:42 | 44.82224 | 5.26704 | 39064 ft | 435 kts | 155° |
| 2026-05-04 09:43 | 44.77034 | 5.31103 | 39062 ft | 436 kts | 154° |
| 2026-05-04 09:43 | 44.71841 | 5.35495 | 39039 ft | 436 kts | 155° |
| 2026-05-04 09:44 | 44.66641 | 5.39884 | 39045 ft | 436 kts | 155° |
| 2026-05-04 09:46 | 44.45878 | 5.57316 | 39071 ft | 434 kts | 155° |
| 2026-05-04 09:46 | 44.40683 | 5.61655 | 39069 ft | 435 kts | 155° |
| 2026-05-04 09:47 | 44.35476 | 5.65994 | 39093 ft | 436 kts | 155° |
| 2026-05-04 09:49 | 44.14498 | 5.83384 | 39097 ft | 442 kts | 155° |
| 2026-05-04 09:51 | 43.95971 | 5.98627 | 39094 ft | 443 kts | 155° |
| 2026-05-04 09:51 | 43.90669 | 6.02968 | 39088 ft | 442 kts | 155° |
| 2026-05-04 09:52 | 43.85368 | 6.07299 | 39070 ft | 442 kts | 156° |
| 2026-05-04 09:52 | 43.80064 | 6.11623 | 39083 ft | 443 kts | 156° |
| 2026-05-04 09:53 | 43.74716 | 6.15970 | 39088 ft | 447 kts | 156° |
| 2026-05-04 09:53 | 43.70261 | 6.19589 | 39080 ft | 446 kts | 156° |
| 2026-05-04 09:54 | 43.64902 | 6.23933 | 39069 ft | 447 kts | 156° |
| 2026-05-04 09:54 | 43.59523 | 6.28285 | 39084 ft | 448 kts | 156° |
| 2026-05-04 09:55 | 43.54153 | 6.32620 | 39073 ft | 447 kts | 156° |
| 2026-05-04 09:55 | 43.48790 | 6.36941 | 39062 ft | 446 kts | 156° |
| 2026-05-04 09:56 | 43.43474 | 6.41214 | 39045 ft | 445 kts | 156° |
| 2026-05-04 09:56 | 43.38112 | 6.45512 | 39072 ft | 448 kts | 156° |
| 2026-05-04 09:57 | 43.32704 | 6.49839 | 39074 ft | 451 kts | 156° |
| 2026-05-04 09:57 | 43.27284 | 6.54171 | 39085 ft | 450 kts | 156° |
| 2026-05-04 09:58 | 43.21872 | 6.58486 | 39092 ft | 451 kts | 157° |
| 2026-05-04 09:58 | 43.16551 | 6.62717 | 39088 ft | 452 kts | 157° |
| 2026-05-04 10:00 | 42.94809 | 6.79924 | 39071 ft | 451 kts | 157° |
| 2026-05-04 10:04 | 42.56451 | 7.09935 | 39080 ft | 457 kts | 158° |
| 2026-05-04 10:04 | 42.50940 | 7.14211 | 39072 ft | 456 kts | 158° |
| 2026-05-04 10:05 | 42.45431 | 7.18478 | 39068 ft | 456 kts | 158° |
| 2026-05-04 10:05 | 42.39931 | 7.22728 | 39064 ft | 455 kts | 158° |
| 2026-05-04 10:06 | 42.34434 | 7.26969 | 39073 ft | 456 kts | 158° |
| 2026-05-04 10:06 | 42.28891 | 7.31232 | 39075 ft | 460 kts | 158° |
| 2026-05-04 10:08 | 42.09489 | 7.46099 | 39075 ft | 460 kts | 158° |
| 2026-05-04 10:08 | 42.03918 | 7.50348 | 39079 ft | 460 kts | 158° |
| 2026-05-04 10:09 | 41.98337 | 7.54596 | 39082 ft | 461 kts | 158° |
| 2026-05-04 10:09 | 41.92767 | 7.58828 | 39076 ft | 459 kts | 158° |
| 2026-05-04 10:10 | 41.87182 | 7.63059 | 39070 ft | 463 kts | 158° |
| 2026-05-04 10:10 | 41.81577 | 7.67300 | 39074 ft | 462 kts | 158° |
| 2026-05-04 10:11 | 41.75983 | 7.71524 | 39070 ft | 462 kts | 158° |
| 2026-05-04 10:11 | 41.70381 | 7.75744 | 39063 ft | 462 kts | 158° |
| 2026-05-04 10:12 | 41.64814 | 7.79929 | 39072 ft | 462 kts | 158° |
| 2026-05-04 10:12 | 41.59213 | 7.84131 | 39069 ft | 462 kts | 158° |
| 2026-05-04 10:13 | 41.53602 | 7.88334 | 39067 ft | 462 kts | 158° |
| 2026-05-04 10:13 | 41.47988 | 7.92529 | 39061 ft | 462 kts | 158° |
| 2026-05-04 10:14 | 41.42374 | 7.96718 | 39063 ft | 463 kts | 158° |
| 2026-05-04 10:16 | 41.19799 | 8.13490 | 39068 ft | 466 kts | 157° |
| 2026-05-04 10:16 | 41.14142 | 8.17714 | 39075 ft | 469 kts | 155° |
| 2026-05-04 10:17 | 41.08573 | 8.22132 | 39079 ft | 467 kts | 159° |
| 2026-05-04 10:19 | 40.85065 | 8.36363 | 39080 ft | 465 kts | 162° |
| 2026-05-04 10:19 | 40.79162 | 8.39889 | 39080 ft | 465 kts | 162° |
| 2026-05-04 10:20 | 40.73268 | 8.43406 | 39076 ft | 465 kts | 162° |
| 2026-05-04 10:20 | 40.67372 | 8.46915 | 39085 ft | 465 kts | 162° |
| 2026-05-04 10:21 | 40.61513 | 8.50397 | 39084 ft | 465 kts | 162° |
| 2026-05-04 10:21 | 40.55606 | 8.53900 | 39083 ft | 466 kts | 162° |
| 2026-05-04 10:22 | 40.46734 | 8.59147 | 39092 ft | 467 kts | 162° |
| 2026-05-04 10:23 | 40.40804 | 8.62647 | 39092 ft | 467 kts | 163° |
| 2026-05-04 10:25 | 40.17077 | 8.76580 | 39092 ft | 468 kts | 162° |
| 2026-05-04 10:25 | 40.11131 | 8.80057 | 39093 ft | 469 kts | 163° |
| 2026-05-04 10:26 | 40.05195 | 8.83518 | 39100 ft | 471 kts | 163° |
| 2026-05-04 10:26 | 39.99212 | 8.87002 | 39108 ft | 471 kts | 163° |
| 2026-05-04 10:27 | 39.93237 | 8.90476 | 39100 ft | 469 kts | 163° |
| 2026-05-04 10:27 | 39.87271 | 8.93937 | 39106 ft | 470 kts | 163° |
| 2026-05-04 10:28 | 39.81272 | 8.97407 | 39092 ft | 472 kts | 163° |
| 2026-05-04 10:28 | 39.75275 | 9.00874 | 39093 ft | 471 kts | 163° |
| 2026-05-04 10:29 | 39.69280 | 9.04331 | 39107 ft | 472 kts | 163° |
| 2026-05-04 10:29 | 39.63337 | 9.08050 | 39092 ft | 479 kts | 156° |
| 2026-05-04 10:30 | 39.57668 | 9.12710 | 39085 ft | 484 kts | 153° |
| 2026-05-04 10:30 | 39.51988 | 9.17411 | 39104 ft | 485 kts | 153° |
| 2026-05-04 10:31 | 39.46281 | 9.22107 | 39111 ft | 487 kts | 154° |
| 2026-05-04 10:32 | 39.26271 | 9.38485 | 39109 ft | 488 kts | 153° |
| 2026-05-04 10:33 | 39.20541 | 9.43154 | 39113 ft | 487 kts | 154° |
| 2026-05-04 10:33 | 39.14773 | 9.47800 | 39112 ft | 489 kts | 156° |
| 2026-05-04 10:34 | 39.08659 | 9.51463 | 39110 ft | 480 kts | 167° |
| 2026-05-04 10:34 | 39.02293 | 9.53788 | 39110 ft | 474 kts | 173° |
| 2026-05-04 10:35 | 38.95900 | 9.55903 | 39081 ft | 475 kts | 172° |
| 2026-05-04 10:35 | 38.89518 | 9.58030 | 39103 ft | 474 kts | 172° |
| 2026-05-04 10:36 | 38.83125 | 9.60120 | 39107 ft | 474 kts | 172° |
| 2026-05-04 10:36 | 38.76729 | 9.62191 | 39108 ft | 474 kts | 172° |
| 2026-05-04 10:37 | 38.70335 | 9.64263 | 39099 ft | 472 kts | 172° |
| 2026-05-04 10:37 | 38.64014 | 9.66313 | 39094 ft | 468 kts | 172° |
| 2026-05-04 10:39 | 38.41909 | 9.73446 | 39092 ft | 464 kts | 172° |
| 2026-05-04 10:40 | 38.35642 | 9.75455 | 39091 ft | 465 kts | 172° |
| 2026-05-04 10:40 | 38.29365 | 9.77467 | 39089 ft | 465 kts | 172° |
| 2026-05-04 10:41 | 38.23132 | 9.79464 | 39071 ft | 464 kts | 172° |
| 2026-05-04 10:41 | 38.16892 | 9.81476 | 39083 ft | 462 kts | 172° |
| 2026-05-04 10:42 | 38.10664 | 9.83480 | 39086 ft | 461 kts | 172° |
| 2026-05-04 10:42 | 38.04442 | 9.85476 | 39063 ft | 461 kts | 172° |
| 2026-05-04 10:43 | 37.98210 | 9.87470 | 39089 ft | 464 kts | 172° |
| 2026-05-04 10:44 | 37.76434 | 9.95381 | 39065 ft | 477 kts | 155° |
| 2026-05-04 10:45 | 37.73637 | 9.97677 | 39062 ft | 482 kts | 146° |
| 2026-05-04 10:45 | 37.71102 | 10.00489 | 38866 ft | 489 kts | 137° |
| 2026-05-04 10:45 | 37.68786 | 10.03631 | 38526 ft | 487 kts | 136° |
| 2026-05-04 10:45 | 37.66487 | 10.06763 | 37989 ft | 485 kts | 136° |
| 2026-05-04 10:46 | 37.64187 | 10.09879 | 37322 ft | 485 kts | 136° |
| 2026-05-04 10:46 | 37.61882 | 10.12986 | 36602 ft | 485 kts | 137° |
| 2026-05-04 10:46 | 37.59572 | 10.16091 | 35904 ft | 485 kts | 137° |
| 2026-05-04 10:46 | 37.57264 | 10.19188 | 35219 ft | 486 kts | 137° |
| 2026-05-04 10:47 | 37.54947 | 10.22293 | 34512 ft | 487 kts | 137° |
| 2026-05-04 10:47 | 37.52617 | 10.25413 | 33701 ft | 490 kts | 137° |
| 2026-05-04 10:47 | 37.50309 | 10.28499 | 32891 ft | 491 kts | 137° |
| 2026-05-04 10:47 | 37.47965 | 10.31628 | 32165 ft | 491 kts | 136° |
| 2026-05-04 10:49 | 37.31705 | 10.53313 | 27482 ft | 472 kts | 136° |
| 2026-05-04 10:49 | 37.29460 | 10.56294 | 26919 ft | 467 kts | 136° |
| 2026-05-04 10:50 | 37.27984 | 10.58254 | 26554 ft | 464 kts | 135° |
| 2026-05-04 10:51 | 37.12645 | 10.78536 | 22144 ft | 443 kts | 135° |
| 2026-05-04 10:52 | 37.10532 | 10.81320 | 21548 ft | 439 kts | 135° |
| 2026-05-04 10:52 | 37.08441 | 10.84074 | 20989 ft | 434 kts | 135° |
| 2026-05-04 10:52 | 37.06369 | 10.86799 | 20414 ft | 430 kts | 135° |
| 2026-05-04 10:54 | 36.92408 | 11.05066 | 16555 ft | 400 kts | 139° |
| 2026-05-04 10:54 | 36.90172 | 11.06962 | 16371 ft | 380 kts | 159° |
| 2026-05-04 10:56 | 36.73454 | 11.03964 | 13174 ft | 342 kts | 198° |
| 2026-05-04 10:56 | 36.71159 | 11.03263 | 12696 ft | 339 kts | 197° |
| 2026-05-04 10:56 | 36.68870 | 11.02565 | 12209 ft | 337 kts | 196° |
| 2026-05-04 10:57 | 36.66622 | 11.01889 | 12003 ft | 326 kts | 197° |
| 2026-05-04 10:57 | 36.64459 | 11.01246 | 11870 ft | 313 kts | 197° |
| 2026-05-04 10:57 | 36.62388 | 11.00628 | 11763 ft | 300 kts | 197° |
| 2026-05-04 10:57 | 36.60394 | 11.00033 | 11657 ft | 288 kts | 197° |
| 2026-05-04 10:58 | 36.58510 | 10.99470 | 11541 ft | 277 kts | 197° |
| 2026-05-04 10:58 | 36.56636 | 10.98905 | 11245 ft | 273 kts | 197° |
| 2026-05-04 10:58 | 36.54819 | 10.98358 | 10889 ft | 272 kts | 197° |
| 2026-05-04 10:58 | 36.52987 | 10.97803 | 10524 ft | 271 kts | 196° |
| 2026-05-04 10:59 | 36.51162 | 10.97256 | 10191 ft | 269 kts | 197° |
| 2026-05-04 10:59 | 36.49350 | 10.96715 | 9852 ft | 267 kts | 197° |
| 2026-05-04 10:59 | 36.47550 | 10.96175 | 9459 ft | 266 kts | 197° |
| 2026-05-04 10:59 | 36.45753 | 10.95637 | 9080 ft | 265 kts | 196° |
| 2026-05-04 11:00 | 36.43965 | 10.95102 | 8716 ft | 263 kts | 197° |
| 2026-05-04 11:01 | 36.31932 | 10.90845 | 6365 ft | 251 kts | 220° |
| 2026-05-04 11:02 | 36.30667 | 10.89375 | 6033 ft | 249 kts | 225° |
| 2026-05-04 11:02 | 36.29432 | 10.87883 | 5714 ft | 247 kts | 225° |
| 2026-05-04 11:05 | 36.14587 | 10.70262 | 2731 ft | 168 kts | 224° |
| 2026-05-04 11:06 | 36.13748 | 10.69268 | 2436 ft | 168 kts | 223° |
| 2026-05-04 11:06 | 36.12894 | 10.68252 | 2114 ft | 170 kts | 222° |
| 2026-05-04 11:06 | 36.12061 | 10.67261 | 2016 ft | 166 kts | 222° |
| 2026-05-04 11:06 | 36.11207 | 10.66253 | 2020 ft | 175 kts | 222° |
| 2026-05-04 11:08 | 36.07511 | 10.57450 | 1888 ft | 184 kts | 264° |
| 2026-05-04 11:10 | 36.07564 | 10.47732 | 419 ft | 150 kts | 267° |
| 2026-05-04 11:12 | 36.07787 | 10.43190 | 25 ft | 17 kts | 360° |
| 2026-05-04 11:12 | 36.07921 | 10.43193 | 24 ft | 21 kts | 1° |
| 2026-05-04 11:12 | 36.08039 | 10.43217 | 25 ft | 16 kts | 48° |
| 2026-05-04 11:12 | 36.08047 | 10.43366 | 22 ft | 19 kts | 90° |
| 2026-05-04 11:13 | 36.08046 | 10.43538 | 26 ft | 21 kts | 90° |
| 2026-05-04 11:13 | 36.08044 | 10.43690 | 24 ft | 8 kts | 89° |
| 2026-05-04 11:13 | 36.08067 | 10.43736 | 23 ft | 8 kts | 35° |
| 2026-05-04 11:13 | 36.08106 | 10.43781 | 15 ft | 6 kts | 45° |
| 2026-05-04 11:14 | 36.08127 | 10.43807 | 15 ft | 1 kts | 45° |
| 2026-05-04 11:14 | 36.08132 | 10.43814 | 15 ft | 2 kts | 44° |
| 2026-05-04 11:14 | 36.08136 | 10.43819 | 15 ft | 0 kts | 44° |